Time;durP1;ratioP1;P1;durP2;ratioP2;P2;SDS_P1;SDS_P2;PMS_P1;PMS_P2;Temp;Humidity;BMP_temperature;BMP_pressure;BME280_temperature;BME280_humidity;BME280_pressure;Samples;Min_cycle;Max_cycle;Signal;HPM_P1;HPM_P2
2021/01/30 00:02:15;;;;;;;40.67;24.10;;;1.50;99.90;;;;;;5058962;28;20032;-81
2021/01/30 00:04:40;;;;;;;51.37;29.47;;;1.40;99.90;;;;;;5058835;28;20572;-80
2021/01/30 00:07:06;;;;;;;54.43;28.63;;;1.50;99.90;;;;;;5057479;28;20547;-80
2021/01/30 00:09:32;;;;;;;51.77;28.47;;;1.60;99.90;;;;;;5069431;28;20116;-80
2021/01/30 00:12:00;;;;;;;53.50;28.63;;;1.60;99.90;;;;;;5065302;28;20150;-80
2021/01/30 00:14:37;;;;;;;47.23;26.97;;;1.60;99.90;;;;;;5076608;28;20028;-80
2021/01/30 00:17:05;;;;;;;45.73;25.27;;;1.60;99.90;;;;;;5074575;28;20043;-80
2021/01/30 00:19:31;;;;;;;42.93;23.37;;;1.50;99.90;;;;;;5058403;28;20028;-81
2021/01/30 00:22:01;;;;;;;37.57;21.37;;;1.40;99.90;;;;;;5076205;28;20506;-80
2021/01/30 00:24:28;;;;;;;41.77;22.33;;;1.40;99.90;;;;;;5081892;28;20047;-80
2021/01/30 00:26:57;;;;;;;37.53;20.17;;;1.50;99.90;;;;;;5096465;28;20698;-80
2021/01/30 00:29:28;;;;;;;35.43;19.73;;;1.50;99.90;;;;;;5074727;28;20466;-80
2021/01/30 00:31:54;;;;;;;35.37;20.00;;;1.70;99.90;;;;;;5076252;28;20017;-80
2021/01/30 00:34:22;;;;;;;35.00;20.43;;;1.70;99.90;;;;;;5076089;28;20434;-80
2021/01/30 00:36:55;;;;;;;34.57;20.67;;;1.70;99.90;;;;;;5076225;28;20078;-79
2021/01/30 00:39:22;;;;;;;38.87;20.83;;;1.60;99.90;;;;;;5058155;28;20024;-80
2021/01/30 00:41:48;;;;;;;48.13;24.30;;;1.60;99.90;;;;;;5090330;28;20505;-80
2021/01/30 00:44:15;;;;;;;59.33;25.73;;;1.60;99.90;;;;;;5077828;28;20028;-80
2021/01/30 00:46:41;;;;;;;57.43;25.87;;;1.50;99.90;;;;;;5057956;28;20035;-80
2021/01/30 00:49:06;;;;;;;87.17;33.33;;;1.40;99.90;;;;;;5071953;28;20107;-79
2021/01/30 00:51:33;;;;;;;91.00;37.60;;;1.30;99.90;;;;;;5070293;28;20025;-79
2021/01/30 00:53:59;;;;;;;87.17;35.60;;;1.30;99.90;;;;;;5073907;28;20039;-79
2021/01/30 00:56:24;;;;;;;66.83;27.90;;;1.30;99.90;;;;;;5095900;28;20036;-79
2021/01/30 00:58:50;;;;;;;55.63;25.70;;;1.30;99.90;;;;;;5095478;28;20482;-79
2021/01/30 01:01:16;;;;;;;61.33;27.60;;;1.30;99.90;;;;;;5095312;28;20115;-79
2021/01/30 01:03:42;;;;;;;55.83;26.60;;;1.30;99.90;;;;;;5077639;28;20120;-79
2021/01/30 01:06:08;;;;;;;47.53;24.33;;;1.30;99.90;;;;;;5077707;28;20456;-80
2021/01/30 01:08:34;;;;;;;50.10;24.87;;;1.30;99.90;;;;;;5072757;28;20417;-79
2021/01/30 01:11:00;;;;;;;47.97;24.00;;;1.30;99.90;;;;;;5077248;28;20085;-79
2021/01/30 01:13:27;;;;;;;51.70;25.53;;;1.30;99.90;;;;;;5088433;28;20031;-79
2021/01/30 01:15:54;;;;;;;47.33;24.83;;;1.30;99.90;;;;;;5067501;28;20020;-79
2021/01/30 01:18:19;;;;;;;61.67;27.97;;;1.30;99.90;;;;;;5073108;28;20032;-79
2021/01/30 01:20:45;;;;;;;75.93;32.50;;;1.20;99.90;;;;;;5068223;28;20550;-79
2021/01/30 01:23:11;;;;;;;73.37;33.20;;;1.10;99.90;;;;;;5060762;28;20120;-79
2021/01/30 01:25:37;;;;;;;64.90;31.37;;;1.10;99.90;;;;;;5081799;28;20058;-79
2021/01/30 01:28:03;;;;;;;61.97;29.43;;;1.10;99.90;;;;;;5057190;28;20486;-79
2021/01/30 01:30:29;;;;;;;58.47;28.27;;;1.20;99.90;;;;;;5056769;28;20701;-79
2021/01/30 01:32:55;;;;;;;59.00;28.27;;;1.20;99.90;;;;;;5057132;28;20053;-79
2021/01/30 01:35:24;;;;;;;55.03;29.60;;;1.20;99.90;;;;;;5074871;28;20025;-79
2021/01/30 01:37:51;;;;;;;55.57;28.80;;;1.10;99.90;;;;;;5057031;28;20029;-79
2021/01/30 01:40:25;;;;;;;51.00;27.90;;;1.10;99.90;;;;;;5056929;28;20540;-79
2021/01/30 01:43:00;;;;;;;53.73;29.37;;;1.10;99.90;;;;;;5056872;28;20024;-79
2021/01/30 01:45:26;;;;;;;53.17;27.67;;;1.00;99.90;;;;;;5074855;28;20047;-79
2021/01/30 01:47:52;;;;;;;54.90;27.73;;;1.00;99.90;;;;;;5056977;28;20048;-79
2021/01/30 01:50:42;;;;;;;52.00;27.03;;;1.00;99.90;;;;;;5074619;28;20102;-79
2021/01/30 01:53:30;;;;;;;47.67;26.87;;;1.10;99.90;;;;;;5074644;28;20111;-78
2021/01/30 01:56:27;;;;;;;51.13;27.37;;;1.10;99.90;;;;;;5074633;28;20025;-78
2021/01/30 01:59:00;;;;;;;51.80;27.50;;;1.30;99.90;;;;;;5054926;28;20119;-78
2021/01/30 02:01:26;;;;;;;50.03;26.17;;;1.30;99.90;;;;;;5074322;28;20081;-79
2021/01/30 02:03:54;;;;;;;47.37;25.07;;;1.10;99.90;;;;;;5056297;28;20021;-79
2021/01/30 02:06:20;;;;;;;47.27;26.97;;;1.00;99.90;;;;;;5056216;28;20024;-79
2021/01/30 02:08:47;;;;;;;49.70;26.53;;;1.00;99.90;;;;;;5074367;28;20021;-79
2021/01/30 02:11:13;;;;;;;51.03;27.13;;;1.00;99.90;;;;;;5074404;28;20020;-78
2021/01/30 02:13:50;;;;;;;48.23;26.17;;;1.00;99.90;;;;;;5056432;28;20090;-78
2021/01/30 02:16:15;;;;;;;54.27;27.00;;;1.10;99.90;;;;;;5073880;28;20486;-78
2021/01/30 02:18:44;;;;;;;45.27;25.47;;;1.10;99.90;;;;;;5046798;28;20033;-78
2021/01/30 02:21:37;;;;;;;52.43;26.77;;;1.10;99.90;;;;;;5035449;28;20514;-78
2021/01/30 02:24:32;;;;;;;48.17;26.37;;;1.10;99.90;;;;;;5062341;28;20035;-78
2021/01/30 02:26:57;;;;;;;49.63;26.53;;;1.10;99.90;;;;;;5075258;28;20055;-78
2021/01/30 02:29:32;;;;;;;54.83;29.00;;;1.10;99.90;;;;;;5092655;28;20366;-78
2021/01/30 02:32:23;;;;;;;51.27;26.83;;;1.10;99.90;;;;;;5070021;28;20490;-78
2021/01/30 02:34:48;;;;;;;46.07;24.83;;;1.20;99.90;;;;;;5092849;28;20028;-78
2021/01/30 02:37:23;;;;;;;50.27;25.63;;;1.00;99.90;;;;;;5072570;28;20047;-78
2021/01/30 02:39:58;;;;;;;50.20;26.27;;;1.10;99.90;;;;;;5071776;28;20036;-79
2021/01/30 02:42:54;;;;;;;56.33;27.30;;;1.00;99.90;;;;;;5066799;28;20024;-78
2021/01/30 02:45:24;;;;;;;57.13;26.47;;;0.90;99.90;;;;;;5074504;28;20035;-78
2021/01/30 02:48:05;;;;;;;52.73;26.57;;;1.00;99.90;;;;;;5092650;28;20032;-78
2021/01/30 02:50:45;;;;;;;52.65;28.08;;;1.00;99.90;;;;;;5077825;28;20028;-78
2021/01/30 02:53:15;;;;;;;49.17;26.00;;;0.90;99.90;;;;;;5071683;28;20486;-78
2021/01/30 02:55:43;;;;;;;47.67;25.80;;;1.00;99.90;;;;;;5091425;28;20077;-78
2021/01/30 02:58:11;;;;;;;53.00;25.47;;;1.10;99.90;;;;;;5074711;28;20089;-79
2021/01/30 03:00:38;;;;;;;44.60;24.47;;;1.10;99.90;;;;;;5074284;28;20523;-78
2021/01/30 03:03:04;;;;;;;42.13;23.37;;;1.00;99.90;;;;;;5074512;28;20846;-78
2021/01/30 03:05:29;;;;;;;41.73;21.47;;;1.10;99.90;;;;;;5074703;28;20020;-78
2021/01/30 03:07:55;;;;;;;41.00;22.80;;;1.10;99.90;;;;;;5057675;28;20455;-78
2021/01/30 03:10:41;;;;;;;40.70;22.07;;;1.10;99.90;;;;;;5054445;28;20029;-78
2021/01/30 03:13:22;;;;;;;40.83;21.33;;;1.10;99.90;;;;;;5054535;28;20139;-78
2021/01/30 03:16:16;;;;;;;39.70;22.03;;;1.10;99.90;;;;;;5054491;28;20021;-78
2021/01/30 03:18:56;;;;;;;39.47;20.43;;;1.00;99.90;;;;;;5056726;28;20024;-78
2021/01/30 03:21:23;;;;;;;32.83;19.23;;;1.10;99.90;;;;;;5068272;28;20498;-77
2021/01/30 03:23:50;;;;;;;24.10;13.47;;;1.20;99.90;;;;;;5049554;28;606952;-78
2021/01/30 03:26:20;;;;;;;23.50;14.20;;;1.30;99.90;;;;;;5075035;28;20063;-78
2021/01/30 03:28:47;;;;;;;28.23;15.03;;;1.40;99.90;;;;;;5074808;28;20027;-77
2021/01/30 03:31:12;;;;;;;28.80;16.23;;;1.50;99.90;;;;;;5074783;28;20024;-77
2021/01/30 03:33:38;;;;;;;36.57;18.63;;;1.50;99.90;;;;;;5093031;28;20074;-77
2021/01/30 03:36:04;;;;;;;44.80;22.33;;;1.40;99.90;;;;;;5074977;28;20543;-78
2021/01/30 03:38:29;;;;;;;35.00;19.43;;;1.30;99.90;;;;;;5074752;28;20035;-77
2021/01/30 03:40:55;;;;;;;31.70;18.13;;;1.10;99.90;;;;;;5092329;28;20028;-77
2021/01/30 03:43:21;;;;;;;38.10;17.93;;;1.00;99.90;;;;;;5074145;28;20608;-77
2021/01/30 03:45:47;;;;;;;32.07;17.87;;;1.00;99.90;;;;;;5074471;28;20027;-77
2021/01/30 03:48:12;;;;;;;24.73;14.10;;;1.10;99.90;;;;;;5068826;28;20082;-77
2021/01/30 03:50:38;;;;;;;19.83;11.93;;;1.10;99.90;;;;;;5072001;28;20023;-77
2021/01/30 03:53:06;;;;;;;18.10;10.43;;;1.20;99.90;;;;;;5070597;28;20051;-78
2021/01/30 03:55:31;;;;;;;14.40;8.20;;;1.20;99.90;;;;;;5074120;28;20024;-77
2021/01/30 03:57:57;;;;;;;14.63;9.10;;;1.30;99.90;;;;;;5074671;28;20066;-77
2021/01/30 04:00:24;;;;;;;19.73;8.63;;;1.40;99.90;;;;;;5074812;28;20024;-78
2021/01/30 04:02:51;;;;;;;12.70;7.40;;;1.50;99.90;;;;;;5074616;28;20028;-77
2021/01/30 04:05:23;;;;;;;13.50;7.97;;;1.60;99.90;;;;;;5074448;28;20546;-78
2021/01/30 04:07:49;;;;;;;15.50;6.70;;;1.70;99.90;;;;;;5074702;28;20028;-78
2021/01/30 04:10:19;;;;;;;7.77;5.37;;;1.80;99.90;;;;;;5074663;28;20111;-77
2021/01/30 04:12:45;;;;;;;9.33;5.20;;;2.00;99.90;;;;;;5092842;28;20682;-77
2021/01/30 04:15:14;;;;;;;5.83;4.50;;;2.10;99.90;;;;;;5092836;28;20070;-78
2021/01/30 04:17:39;;;;;;;5.60;4.30;;;2.20;99.90;;;;;;5074659;28;20382;-78
2021/01/30 04:20:07;;;;;;;16.53;10.30;;;2.40;99.90;;;;;;5074229;28;20020;-78
2021/01/30 04:22:33;;;;;;;18.87;10.83;;;2.30;99.90;;;;;;5074537;28;20048;-78
2021/01/30 04:24:58;;;;;;;22.90;12.60;;;2.20;99.90;;;;;;5074398;28;20075;-78
2021/01/30 04:27:24;;;;;;;26.97;16.00;;;2.20;99.90;;;;;;5074166;28;20024;-78
2021/01/30 04:29:49;;;;;;;32.73;18.53;;;2.10;99.90;;;;;;5074565;28;20050;-78
2021/01/30 04:32:15;;;;;;;33.97;20.27;;;2.00;99.90;;;;;;5074202;28;20028;-77
2021/01/30 04:34:41;;;;;;;35.80;19.23;;;1.90;99.90;;;;;;5092663;28;20031;-78
2021/01/30 04:37:07;;;;;;;40.87;19.80;;;1.90;99.90;;;;;;5074497;28;20122;-78
2021/01/30 04:39:33;;;;;;;33.37;18.87;;;1.80;99.90;;;;;;5074362;28;20055;-78
2021/01/30 04:42:13;;;;;;;32.87;18.20;;;1.80;99.90;;;;;;5074433;28;20069;-78
2021/01/30 04:44:49;;;;;;;32.93;18.47;;;1.70;99.90;;;;;;5077026;28;20032;-78
2021/01/30 04:47:28;;;;;;;35.83;19.00;;;1.70;99.90;;;;;;5095879;28;20046;-78
2021/01/30 04:50:25;;;;;;;30.87;17.87;;;1.60;99.90;;;;;;5077966;28;20107;-78
2021/01/30 04:53:11;;;;;;;32.63;18.70;;;1.50;99.90;;;;;;5077985;28;20020;-78
2021/01/30 04:56:02;;;;;;;36.93;19.20;;;1.50;99.90;;;;;;5077570;28;20020;-78
2021/01/30 04:58:50;;;;;;;37.63;20.43;;;1.50;99.90;;;;;;5096215;28;20020;-77
2021/01/30 05:01:38;;;;;;;30.83;18.33;;;1.50;99.90;;;;;;5077839;28;20057;-78
2021/01/30 05:04:34;;;;;;;36.50;19.87;;;1.40;99.90;;;;;;5077361;28;20081;-78
2021/01/30 05:07:18;;;;;;;31.33;19.07;;;1.40;99.90;;;;;;5087660;28;20028;-78
2021/01/30 05:09:59;;;;;;;37.63;21.10;;;1.40;99.90;;;;;;5070732;28;20020;-77
2021/01/30 05:12:47;;;;;;;37.87;18.97;;;1.30;99.90;;;;;;5057626;28;20417;-78
2021/01/30 05:15:21;;;;;;;33.33;18.67;;;1.30;99.90;;;;;;5075510;28;20103;-78
2021/01/30 05:18:22;;;;;;;29.37;17.20;;;1.20;99.90;;;;;;5075436;28;20429;-77
2021/01/30 05:20:55;;;;;;;28.90;17.37;;;1.20;99.90;;;;;;5070526;28;20016;-78
2021/01/30 05:23:21;;;;;;;33.57;17.73;;;1.20;99.90;;;;;;5094061;28;20381;-78
2021/01/30 05:25:53;;;;;;;27.70;16.53;;;1.20;99.90;;;;;;5077216;28;20044;-78
2021/01/30 05:28:39;;;;;;;;;;;1.10;99.90;;;;;;5077803;28;20020;-78
2021/01/30 05:31:27;;;;;;;34.47;15.77;;;1.00;99.90;;;;;;5077184;28;19910;-78
2021/01/30 05:34:23;;;;;;;30.17;17.43;;;1.00;99.90;;;;;;5077120;28;20516;-77
2021/01/30 05:37:11;;;;;;;33.23;16.50;;;1.00;99.90;;;;;;5077246;28;20036;-78
2021/01/30 05:40:01;;;;;;;32.87;18.03;;;1.10;99.90;;;;;;5077172;28;20028;-78
2021/01/30 05:42:27;;;;;;;35.57;18.73;;;1.10;99.90;;;;;;5095289;28;20431;-78
2021/01/30 05:45:03;;;;;;;34.23;18.93;;;1.20;99.90;;;;;;5076992;28;20032;-78
2021/01/30 05:47:31;;;;;;;37.53;20.17;;;1.30;99.90;;;;;;5095113;28;20020;-78
2021/01/30 05:50:26;;;;;;;43.33;20.07;;;1.20;99.90;;;;;;5094932;28;20028;-78
2021/01/30 05:52:55;;;;;;;42.43;19.77;;;1.30;99.90;;;;;;5095090;28;20054;-78
2021/01/30 05:55:33;;;;;;;35.33;19.87;;;1.40;99.90;;;;;;5093872;28;20545;-78
2021/01/30 05:58:04;;;;;;;44.30;21.80;;;1.50;99.90;;;;;;5081179;28;20493;-78
2021/01/30 06:00:30;;;;;;;37.43;20.30;;;1.60;99.90;;;;;;5076547;28;20020;-78
2021/01/30 06:03:05;;;;;;;38.37;19.77;;;1.60;99.90;;;;;;5094355;28;20571;-78
2021/01/30 06:05:40;;;;;;;36.87;19.13;;;1.80;99.90;;;;;;5076648;28;20028;-78
2021/01/30 06:08:28;;;;;;;35.33;20.27;;;1.80;99.90;;;;;;5076655;28;20023;-78
2021/01/30 06:11:09;;;;;;;36.00;18.70;;;2.00;99.90;;;;;;5076388;28;20397;-78
2021/01/30 06:13:54;;;;;;;34.90;17.47;;;2.00;99.90;;;;;;5076492;28;20464;-78
2021/01/30 06:16:36;;;;;;;30.97;17.17;;;2.20;99.90;;;;;;5094208;28;20490;-78
2021/01/30 06:19:10;;;;;;;;;;;2.20;99.90;;;;;;5082869;28;20074;-78
2021/01/30 06:21:35;;;;;;;24.23;13.70;;;2.30;99.90;;;;;;5087045;28;20359;-78
2021/01/30 06:24:10;;;;;;;27.80;14.60;;;2.30;99.90;;;;;;5096300;28;20078;-78
2021/01/30 06:26:40;;;;;;;23.40;14.33;;;2.40;99.90;;;;;;5077890;28;20720;-78
2021/01/30 06:29:17;;;;;;;25.87;13.83;;;2.50;99.90;;;;;;5076075;28;20028;-78
2021/01/30 06:31:43;;;;;;;23.60;12.33;;;2.50;99.90;;;;;;5076014;28;20485;-78
2021/01/30 06:34:25;;;;;;;25.03;13.43;;;2.50;99.90;;;;;;5075735;28;20035;-78
2021/01/30 06:36:52;;;;;;;19.75;12.48;;;2.50;99.90;;;;;;5094192;28;20020;-78
2021/01/30 06:39:41;;;;;;;21.63;12.53;;;2.50;99.90;;;;;;5075701;28;20028;-78
2021/01/30 06:42:15;;;;;;;20.13;12.37;;;2.50;99.90;;;;;;5076013;28;20106;-78
2021/01/30 06:44:41;;;;;;;22.63;12.73;;;2.50;99.90;;;;;;5094015;28;20020;-77
2021/01/30 06:47:10;;;;;;;24.60;13.67;;;2.40;99.90;;;;;;5075524;28;20021;-79
2021/01/30 06:49:37;;;;;;;21.27;12.40;;;2.30;99.90;;;;;;5086401;28;20028;-78
2021/01/30 06:52:33;;;;;;;20.60;11.53;;;2.30;99.90;;;;;;5075710;28;20114;-78
2021/01/30 06:55:05;;;;;;;16.47;10.60;;;2.30;99.90;;;;;;5070466;28;20020;-78
2021/01/30 06:58:00;;;;;;;17.10;9.88;;;2.30;99.90;;;;;;5075539;28;20035;-78
2021/01/30 07:00:30;;;;;;;17.17;9.87;;;2.40;99.90;;;;;;5077174;28;20040;-77
2021/01/30 07:03:14;;;;;;;16.40;9.67;;;2.40;99.90;;;;;;5075468;28;20444;-78
2021/01/30 07:05:54;;;;;;;18.37;9.80;;;2.40;99.90;;;;;;5072118;28;20025;-78
2021/01/30 07:08:31;;;;;;;18.63;9.17;;;2.40;99.90;;;;;;5075516;28;20034;-78
2021/01/30 07:11:48;;;;;;;14.40;8.47;;;2.40;99.90;;;;;;5089895;28;20028;-78
2021/01/30 07:14:29;;;;;;;16.97;8.97;;;2.40;99.90;;;;;;4994263;28;20038;-77
2021/01/30 07:17:09;;;;;;;11.83;7.13;;;2.40;99.90;;;;;;4975681;28;20096;-78
2021/01/30 07:19:58;;;;;;;11.67;6.60;;;2.50;99.90;;;;;;5034115;28;20032;-78
2021/01/30 07:22:37;;;;;;;24.67;10.40;;;2.50;99.90;;;;;;5075226;28;20058;-78
2021/01/30 07:25:06;;;;;;;14.30;8.63;;;2.30;99.90;;;;;;5072857;28;20056;-78
2021/01/30 07:27:39;;;;;;;11.57;7.37;;;2.30;99.90;;;;;;5093248;28;20067;-78
2021/01/30 07:30:15;;;;;;;11.47;7.53;;;2.30;99.90;;;;;;5075164;28;20128;-78
2021/01/30 07:33:17;;;;;;;11.17;6.63;;;2.30;99.90;;;;;;5075232;28;20118;-77
2021/01/30 07:36:01;;;;;;;9.20;6.17;;;2.40;99.90;;;;;;5093101;28;20028;-78
2021/01/30 07:39:05;;;;;;;12.77;6.23;;;2.40;99.90;;;;;;5093141;28;20020;-78
2021/01/30 07:41:40;;;;;;;9.50;6.40;;;2.40;99.90;;;;;;5093149;28;20070;-78
2021/01/30 07:44:21;;;;;;;9.97;6.40;;;2.50;99.90;;;;;;5074920;28;20431;-78
2021/01/30 07:47:21;;;;;;;8.67;5.87;;;2.60;99.90;;;;;;5074989;28;20070;-78
2021/01/30 07:49:54;;;;;;;9.33;6.30;;;2.70;99.90;;;;;;5057804;28;20028;-78
2021/01/30 07:52:31;;;;;;;13.50;7.43;;;2.70;99.90;;;;;;5093037;28;20035;-79
2021/01/30 07:54:59;;;;;;;11.03;7.17;;;2.80;99.90;;;;;;5074927;28;20035;-78
2021/01/30 07:58:14;;;;;;;13.63;8.00;;;2.80;99.90;;;;;;5074628;28;20024;-78
2021/01/30 08:01:16;;;;;;;11.30;6.13;;;2.80;99.90;;;;;;4994437;28;20062;-78
2021/01/30 08:04:03;;;;;;;9.40;4.93;;;2.80;99.90;;;;;;5043988;28;20040;-78
2021/01/30 08:06:45;;;;;;;8.10;5.20;;;2.90;99.90;;;;;;5054586;28;20020;-78
2021/01/30 08:09:34;;;;;;;10.25;5.65;;;3.00;99.90;;;;;;5054572;28;20012;-82
2021/01/30 08:12:05;;;;;;;12.40;6.70;;;3.00;99.90;;;;;;5054548;28;20021;-81
2021/01/30 08:14:50;;;;;;;9.43;5.45;;;3.10;99.90;;;;;;5072496;28;20420;-81
2021/01/30 08:17:30;;;;;;;7.77;4.70;;;3.10;99.90;;;;;;5054754;28;20036;-81
2021/01/30 08:20:11;;;;;;;7.20;4.97;;;3.20;99.90;;;;;;5095278;28;20031;-81
2021/01/30 08:22:45;;;;;;;8.80;5.07;;;3.30;99.90;;;;;;5096712;28;20025;-81
2021/01/30 08:25:16;;;;;;;12.40;6.23;;;3.30;99.90;;;;;;5078228;28;20104;-81
2021/01/30 08:27:47;;;;;;;7.68;5.45;;;3.40;99.90;;;;;;5077922;28;20043;-81
2021/01/30 08:30:23;;;;;;;15.40;7.50;;;3.50;99.90;;;;;;5078284;28;20679;-81
2021/01/30 08:33:09;;;;;;;18.87;9.03;;;3.60;99.90;;;;;;5096617;28;20020;-81
2021/01/30 08:35:39;;;;;;;14.93;7.17;;;3.70;99.90;;;;;;5078087;28;20054;-81
2021/01/30 08:38:17;;;;;;;8.77;5.93;;;3.70;99.90;;;;;;5072370;28;20020;-84
2021/01/30 08:40:53;;;;;;;13.17;7.00;;;3.70;99.90;;;;;;5086813;28;20031;-84
2021/01/30 08:43:18;;;;;;;12.77;8.07;;;3.70;99.90;;;;;;5066774;28;20048;-83
2021/01/30 08:45:44;;;;;;;17.53;9.90;;;3.90;99.90;;;;;;5056309;28;20064;-84
2021/01/30 08:48:27;;;;;;;15.43;9.47;;;4.00;99.90;;;;;;5055743;28;20032;-84
2021/01/30 08:50:56;;;;;;;21.37;12.60;;;4.10;99.90;;;;;;5067470;28;20114;-85
2021/01/30 08:53:21;;;;;;;31.80;16.07;;;4.20;99.90;;;;;;5088973;28;20029;-84
2021/01/30 08:55:47;;;;;;;31.20;16.67;;;4.20;99.90;;;;;;5072713;28;20123;-84
2021/01/30 08:58:37;;;;;;;38.23;18.13;;;4.20;99.90;;;;;;5074759;28;20174;-84
2021/01/30 09:01:05;;;;;;;42.27;19.27;;;4.30;99.90;;;;;;5086012;28;20085;-84
2021/01/30 09:03:48;;;;;;;33.37;19.10;;;4.30;99.90;;;;;;5096210;28;20040;-84
2021/01/30 09:06:39;;;;;;;37.97;19.23;;;4.30;99.90;;;;;;5081287;28;20031;-84
2021/01/30 09:09:07;;;;;;;35.07;18.73;;;4.30;99.90;;;;;;5084934;28;20024;-84
2021/01/30 09:11:54;;;;;;;33.00;18.73;;;4.40;99.90;;;;;;5084991;28;20557;-84
2021/01/30 09:14:20;;;;;;;31.10;18.43;;;4.50;99.90;;;;;;5110867;28;20101;-84
2021/01/30 09:16:57;;;;;;;30.30;16.80;;;4.50;99.90;;;;;;5093250;28;20025;-83
2021/01/30 09:19:57;;;;;;;30.13;17.30;;;4.70;99.90;;;;;;5068035;28;20130;-84
2021/01/30 09:22:35;;;;;;;33.80;17.80;;;4.80;99.90;;;;;;5053231;28;20032;-83
2021/01/30 09:25:35;;;;;;;31.97;15.97;;;5.00;99.90;;;;;;5060735;28;20046;-83
2021/01/30 09:28:06;;;;;;;31.37;17.03;;;5.10;99.90;;;;;;5064728;28;20019;-84
2021/01/30 09:30:52;;;;;;;32.45;18.13;;;5.10;99.90;;;;;;5075775;28;20638;-83
2021/01/30 09:33:23;;;;;;;35.53;18.58;;;5.10;99.90;;;;;;5077757;28;20023;-84
2021/01/30 09:35:49;;;;;;;34.63;17.53;;;5.10;99.90;;;;;;5090533;28;20680;-83
2021/01/30 09:38:23;;;;;;;33.78;16.98;;;5.10;99.90;;;;;;5107761;28;20257;-82
2021/01/30 09:40:50;;;;;;;34.40;16.33;;;5.10;99.90;;;;;;5066747;28;20016;-80
2021/01/30 09:43:21;;;;;;;28.70;15.65;;;5.10;99.90;;;;;;5070033;28;20056;-81
2021/01/30 09:45:51;;;;;;;35.38;16.70;;;5.20;99.90;;;;;;5065557;28;20047;-83
2021/01/30 09:48:18;;;;;;;33.47;17.30;;;5.20;99.90;;;;;;5087868;28;20525;-83
2021/01/30 09:50:57;;;;;;;32.58;16.92;;;5.20;99.90;;;;;;5108719;28;20098;-85
2021/01/30 09:53:36;;;;;;;34.03;14.85;;;5.20;99.90;;;;;;5092395;28;20061;-82
2021/01/30 09:56:14;;;;;;;27.70;13.00;;;5.30;99.90;;;;;;5090070;28;20023;-85
2021/01/30 09:58:43;;;;;;;28.10;13.10;;;5.30;99.90;;;;;;5087128;28;20036;-81
2021/01/30 10:01:31;;;;;;;26.85;13.23;;;5.30;99.90;;;;;;5056143;28;20028;-81
2021/01/30 10:03:57;;;;;;;27.23;13.82;;;5.40;99.90;;;;;;5079860;28;20040;-81
2021/01/30 10:06:32;;;;;;;24.67;13.25;;;5.40;99.90;;;;;;5072330;28;20049;-78
2021/01/30 10:09:08;;;;;;;25.33;13.25;;;5.50;99.90;;;;;;5076867;28;20485;-82
2021/01/30 10:11:37;;;;;;;25.10;13.25;;;5.50;99.90;;;;;;5055899;28;20020;-85
2021/01/30 10:14:03;;;;;;;25.77;13.60;;;5.60;99.90;;;;;;5060306;28;20473;-81
2021/01/30 10:16:29;;;;;;;25.20;12.73;;;5.70;99.90;;;;;;5070202;28;20032;-81
2021/01/30 10:19:12;;;;;;;23.67;13.43;;;5.80;99.90;;;;;;5071033;28;20108;-84
2021/01/30 10:21:40;;;;;;;27.08;13.07;;;6.10;99.90;;;;;;5089026;28;20028;-83
2021/01/30 10:24:16;;;;;;;25.42;13.13;;;6.30;99.90;;;;;;5069263;28;20104;-84
2021/01/30 10:26:41;;;;;;;27.30;13.07;;;6.30;99.90;;;;;;5070097;28;20024;-83
2021/01/30 10:29:12;;;;;;;30.65;14.27;;;6.50;99.90;;;;;;5070442;28;20043;-80
2021/01/30 10:31:46;;;;;;;29.10;15.55;;;6.70;99.90;;;;;;5059732;28;20025;-82
2021/01/30 10:34:18;;;;;;;29.92;15.60;;;6.80;99.90;;;;;;5054945;28;20032;-81
2021/01/30 10:36:48;;;;;;;;;;;6.80;99.90;;;;;;5047812;28;20064;-84
2021/01/30 10:39:15;;;;;;;35.08;16.80;;;6.80;99.90;;;;;;5047717;28;20003;-83
2021/01/30 10:41:44;;;;;;;37.33;18.48;;;6.70;99.90;;;;;;5047133;28;20021;-83
2021/01/30 10:47:03;;;;;;;44.85;21.75;;;6.80;99.90;;;;;;5093098;28;20024;-83
2021/01/30 10:49:32;;;;;;;46.20;22.75;;;6.80;99.90;;;;;;5081568;28;20036;-82
2021/01/30 10:52:06;;;;;;;42.83;23.83;;;6.70;99.90;;;;;;5048963;28;20059;-87
2021/01/30 10:54:32;;;;;;;42.20;23.40;;;6.70;99.90;;;;;;5050306;28;20646;-84
2021/01/30 10:57:10;;;;;;;48.65;23.67;;;6.70;99.90;;;;;;5051170;28;20037;-81
2021/01/30 11:00:01;;;;;;;56.50;22.55;;;6.60;99.90;;;;;;5069276;28;20020;-81
2021/01/30 11:02:35;;;;;;;44.70;23.52;;;6.60;99.90;;;;;;5055298;28;20561;-82
2021/01/30 11:05:01;;;;;;;45.08;23.10;;;6.50;99.90;;;;;;5056718;28;20060;-83
2021/01/30 11:07:40;;;;;;;47.78;22.50;;;6.50;99.90;;;;;;5080920;28;20105;-85
2021/01/30 11:10:06;;;;;;;47.83;23.27;;;6.50;99.90;;;;;;5088961;28;20039;-83
2021/01/30 11:12:35;;;;;;;48.38;24.27;;;6.50;99.90;;;;;;5088216;28;20597;-83
2021/01/30 11:15:19;;;;;;;46.10;23.45;;;6.60;99.90;;;;;;5090446;28;20530;-79
2021/01/30 11:17:46;;;;;;;47.72;24.83;;;6.70;99.90;;;;;;5089655;28;20102;-79
2021/01/30 11:20:14;;;;;;;52.05;27.20;;;6.80;99.90;;;;;;5068573;28;20178;-79
2021/01/30 11:22:49;;;;;;;51.10;27.05;;;6.90;99.90;;;;;;5089297;28;20036;-80
2021/01/30 11:25:15;;;;;;;51.90;28.55;;;7.00;99.90;;;;;;5073348;28;20048;-82
2021/01/30 11:27:47;;;;;;;50.22;26.95;;;7.00;99.90;;;;;;5073195;28;20058;-81
2021/01/30 11:30:16;;;;;;;52.13;27.38;;;7.00;99.90;;;;;;5053277;28;20020;-80
2021/01/30 11:32:57;;;;;;;47.97;25.27;;;7.00;99.90;;;;;;5055215;28;20477;-84
2021/01/30 11:35:45;;;;;;;54.47;27.15;;;7.00;99.90;;;;;;5060716;28;20051;-81
2021/01/30 11:38:17;;;;;;;48.90;25.02;;;7.00;99.90;;;;;;5077905;28;20132;-82
2021/01/30 11:40:43;;;;;;;47.20;27.35;;;7.00;99.90;;;;;;5063241;28;20052;-81
2021/01/30 11:43:11;;;;;;;53.65;27.98;;;7.00;99.90;;;;;;5069070;28;20020;-81
2021/01/30 11:45:37;;;;;;;50.80;27.55;;;7.00;99.90;;;;;;5069100;28;20042;-80
2021/01/30 11:48:03;;;;;;;50.00;25.85;;;7.00;99.90;;;;;;5081548;28;20641;-80
2021/01/30 11:50:29;;;;;;;54.38;28.23;;;7.00;99.90;;;;;;5066401;28;20052;-84
2021/01/30 11:53:08;;;;;;;52.90;27.42;;;7.00;99.90;;;;;;5068539;28;20477;-84
2021/01/30 11:55:34;;;;;;;45.88;26.98;;;7.00;99.90;;;;;;5065277;28;20048;-78
2021/01/30 11:58:00;;;;;;;46.55;25.77;;;7.00;99.90;;;;;;5064897;28;20166;-79
2021/01/30 12:00:25;;;;;;;49.47;27.70;;;6.90;99.90;;;;;;5064230;28;20119;-78
2021/01/30 12:02:53;;;;;;;57.25;27.50;;;6.90;99.90;;;;;;5065096;28;20036;-79
2021/01/30 12:05:19;;;;;;;50.20;28.40;;;6.90;99.90;;;;;;5072011;28;20492;-79
2021/01/30 12:07:44;;;;;;;56.28;29.35;;;6.90;99.90;;;;;;5058594;28;20017;-80
2021/01/30 12:10:11;;;;;;;60.95;30.83;;;6.90;99.90;;;;;;5068031;28;20029;-80
2021/01/30 12:12:37;;;;;;;48.28;29.40;;;6.90;99.90;;;;;;5067105;28;20073;-80
2021/01/30 12:15:05;;;;;;;56.95;29.55;;;6.90;99.90;;;;;;5085599;28;20032;-79
2021/01/30 12:17:35;;;;;;;62.72;30.45;;;6.90;99.90;;;;;;5067581;28;20036;-79
2021/01/30 12:20:02;;;;;;;56.50;30.42;;;6.90;99.90;;;;;;5065235;28;20569;-79
2021/01/30 12:22:28;;;;;;;54.38;30.13;;;6.90;99.90;;;;;;5047175;28;20120;-79
2021/01/30 12:24:53;;;;;;;60.95;31.73;;;6.90;99.90;;;;;;5047706;28;20135;-79
2021/01/30 12:27:19;;;;;;;58.67;31.50;;;6.90;99.90;;;;;;5040339;28;20174;-79
2021/01/30 12:29:45;;;;;;;56.35;30.75;;;6.90;99.90;;;;;;5068916;28;20479;-79
2021/01/30 12:32:12;;;;;;;61.17;33.25;;;6.80;99.90;;;;;;5086035;28;20023;-79
2021/01/30 12:34:38;;;;;;;61.47;33.08;;;6.80;99.90;;;;;;5069185;28;20027;-79
2021/01/30 12:37:05;;;;;;;69.25;37.22;;;6.80;99.90;;;;;;5062747;28;20020;-79
2021/01/30 12:39:32;;;;;;;59.35;33.00;;;6.80;99.90;;;;;;5071393;28;20026;-80
2021/01/30 12:41:58;;;;;;;62.03;34.47;;;6.80;99.90;;;;;;5072201;28;20103;-81
2021/01/30 12:44:24;;;;;;;63.83;32.53;;;6.80;99.90;;;;;;5053012;28;20435;-82
2021/01/30 12:46:51;;;;;;;59.55;31.40;;;6.80;99.90;;;;;;5084999;28;20160;-82
2021/01/30 12:49:17;;;;;;;57.50;31.85;;;6.80;99.90;;;;;;5082008;28;20068;-84
2021/01/30 12:51:43;;;;;;;58.38;32.65;;;6.80;99.90;;;;;;5061535;28;20445;-80
2021/01/30 12:54:15;;;;;;;65.15;35.05;;;6.80;99.90;;;;;;5059722;28;20024;-79
2021/01/30 12:56:40;;;;;;;69.88;35.63;;;6.80;99.90;;;;;;5080869;28;20067;-80
2021/01/30 12:59:06;;;;;;;63.53;33.78;;;6.90;99.90;;;;;;5091028;28;20051;-84
2021/01/30 13:01:32;;;;;;;66.40;37.05;;;6.90;99.90;;;;;;5083318;28;20027;-86
2021/01/30 13:03:58;;;;;;;69.72;36.40;;;6.90;99.90;;;;;;5110854;28;20572;-86
2021/01/30 13:06:24;;;;;;;69.90;37.10;;;6.90;99.90;;;;;;5095796;28;20023;-80
2021/01/30 13:08:51;;;;;;;56.40;34.00;;;6.90;99.90;;;;;;5095846;28;20488;-80
2021/01/30 13:11:17;;;;;;;62.25;32.97;;;6.80;99.90;;;;;;5097973;28;20158;-80
2021/01/30 13:13:44;;;;;;;60.85;33.60;;;6.80;99.90;;;;;;5075000;28;20504;-80
2021/01/30 13:16:10;;;;;;;61.20;34.60;;;6.80;99.90;;;;;;5075627;28;20024;-80